ADDS METAR Data INFO
IDs: Format: Raw Decoded Include TAF

Data at: 0548 UTC 25 Feb 2018

KSET 250454Z AUTO 27023G34KT 10SM 08/03 A2979 RMK AO2 PK WND 28038/0407 SLP088 T00780033 $
No TAF found for KSET

KSTL 250451Z 28024G32KT 10SM SCT020 BKN027 OVC034 08/04 A2980 RMK AO2 PK WND 28032/0450 RAE35 SLP094 P0000 T00780044

KSTL 250520Z 2506/2612 28018G28KT P6SM OVC025
  FM250900 26010KT P6SM SKC
  FM252200 19006KT P6SM SKC
  FM260500 VRB03KT P6SM SCT070